createdAt,value
2022-09-27T00:01:09.255Z,137.02
2022-09-27T00:03:36.998Z,144.30
2022-09-27T00:06:16.751Z,135.15
2022-09-27T00:08:44.282Z,135.70
2022-09-27T00:11:32.503Z,142.98
2022-09-27T00:14:00.543Z,145.27
2022-09-27T00:16:30.514Z,136.02
2022-09-27T00:19:03.340Z,137.05
2022-09-27T00:21:32.287Z,138.30
2022-09-27T00:24:00.568Z,139.15
2022-09-27T00:26:28.517Z,137.90
2022-09-27T00:28:56.211Z,139.23
2022-09-27T00:31:30.000Z,137.80
2022-09-27T00:34:00.931Z,136.68
2022-09-27T00:36:29.565Z,136.48
2022-09-27T00:39:00.030Z,135.88
2022-09-27T00:41:35.911Z,137.15
2022-09-27T00:44:25.667Z,137.23
2022-09-27T00:47:01.805Z,135.68
2022-09-27T00:49:41.022Z,138.82
2022-09-27T00:52:16.746Z,140.20
2022-09-27T00:54:48.439Z,138.95
2022-09-27T00:57:16.345Z,148.55
2022-09-27T00:59:51.348Z,138.70
2022-09-27T01:02:19.228Z,142.23
2022-09-27T01:04:47.849Z,168.43
2022-09-27T01:07:15.450Z,139.88
2022-09-27T01:09:43.279Z,140.48
2022-09-27T01:12:19.763Z,140.55
2022-09-27T01:15:28.622Z,138.27
2022-09-27T01:18:25.626Z,132.88
2022-09-27T01:21:22.573Z,129.18
2022-09-27T01:24:08.202Z,130.80
2022-09-27T01:26:51.762Z,132.55
2022-09-27T01:29:24.960Z,130.88
2022-09-27T01:31:56.014Z,130.30
2022-09-27T01:34:42.762Z,131.70
2022-09-27T01:37:17.741Z,130.10
2022-09-27T01:40:29.632Z,132.68
2022-09-27T01:43:32.792Z,130.35
2022-09-27T01:46:34.406Z,134.48
2022-09-27T01:49:43.225Z,133.00
2022-09-27T01:52:13.528Z,131.82
2022-09-27T01:54:45.636Z,134.05
2022-09-27T01:57:41.388Z,128.93
2022-09-27T02:00:16.340Z,126.60
2022-09-27T02:02:52.140Z,130.10
2022-09-27T02:05:48.326Z,131.15
2022-09-27T02:08:43.963Z,130.52
2022-09-27T02:11:24.233Z,130.65
2022-09-27T02:14:19.086Z,124.88
2022-09-27T02:16:59.795Z,130.20
2022-09-27T02:19:53.381Z,127.03
2022-09-27T02:22:38.037Z,127.40
2022-09-27T02:25:20.532Z,122.93
2022-09-27T02:27:55.903Z,125.80
2022-09-27T02:30:27.660Z,136.70
2022-09-27T02:33:03.015Z,132.25
2022-09-27T02:35:34.642Z,130.52
2022-09-27T02:38:04.336Z,130.50
2022-09-27T02:40:36.242Z,131.80
2022-09-27T02:43:06.561Z,132.18
2022-09-27T02:45:58.597Z,132.05
2022-09-27T02:48:41.256Z,133.13
2022-09-27T02:51:33.000Z,132.80
2022-09-27T02:54:09.166Z,132.55
2022-09-27T02:57:55.549Z,131.70
2022-09-27T03:01:06.100Z,131.52
2022-09-27T03:03:55.292Z,131.85
2022-09-27T03:06:24.058Z,132.57
2022-09-27T03:08:51.782Z,132.00
2022-09-27T03:11:19.324Z,130.75
2022-09-27T03:14:07.258Z,131.77
2022-09-27T03:16:37.347Z,130.38
2022-09-27T03:19:30.635Z,131.50
2022-09-27T03:22:29.817Z,129.27
2022-09-27T03:24:57.728Z,131.73
2022-09-27T03:27:25.401Z,131.10
2022-09-27T03:29:53.049Z,131.32
2022-09-27T03:32:21.002Z,128.68
2022-09-27T03:35:07.214Z,129.80
2022-09-27T03:37:35.221Z,126.90
2022-09-27T03:40:02.746Z,127.88
2022-09-27T03:42:30.505Z,127.35
2022-09-27T03:44:57.844Z,128.50
2022-09-27T03:47:25.363Z,128.68
2022-09-27T03:49:53.066Z,126.28
2022-09-27T03:52:20.878Z,128.95
2022-09-27T03:54:48.420Z,128.88
2022-09-27T03:57:16.234Z,130.40
2022-09-27T03:59:43.590Z,130.50
2022-09-27T04:02:31.444Z,134.63
2022-09-27T04:05:17.491Z,137.77
2022-09-27T04:07:50.885Z,138.93
2022-09-27T04:10:20.570Z,139.43
2022-09-27T04:12:49.004Z,140.32
2022-09-27T04:15:16.956Z,139.55
2022-09-27T04:17:50.811Z,141.18
2022-09-27T04:20:41.118Z,142.32
2022-09-27T04:23:11.291Z,167.20
2022-09-27T04:25:42.407Z,139.75
2022-09-27T04:28:19.113Z,140.50
2022-09-27T04:30:47.344Z,140.98
2022-09-27T04:33:34.830Z,140.30
2022-09-27T04:36:28.699Z,141.25
2022-09-27T04:39:07.778Z,142.63
2022-09-27T04:41:38.249Z,143.90
2022-09-27T04:44:06.763Z,141.02
2022-09-27T04:46:35.217Z,143.48
2022-09-27T04:49:03.051Z,140.90
2022-09-27T04:51:32.436Z,141.98
2022-09-27T04:54:00.811Z,142.75
2022-09-27T04:56:33.906Z,139.05
2022-09-27T04:59:09.907Z,136.00
2022-09-27T05:01:40.696Z,137.63
2022-09-27T05:04:08.197Z,140.88
2022-09-27T05:06:39.311Z,138.63
2022-09-27T05:09:16.365Z,139.27
2022-09-27T05:11:52.499Z,138.38
2022-09-27T05:14:35.694Z,138.75
2022-09-27T05:17:31.965Z,136.02
2022-09-27T05:20:26.088Z,134.15
2022-09-27T05:23:10.257Z,134.32
2022-09-27T05:25:38.229Z,131.50
2022-09-27T05:28:06.342Z,132.38
2022-09-27T05:30:33.967Z,131.93
2022-09-27T05:33:09.035Z,135.35
2022-09-27T05:35:55.831Z,134.98
2022-09-27T05:38:30.373Z,131.93
2022-09-27T05:41:00.311Z,131.38
2022-09-27T05:43:28.578Z,128.98
2022-09-27T05:46:01.030Z,128.98
2022-09-27T05:48:30.542Z,127.53
2022-09-27T05:51:05.204Z,126.32
2022-09-27T05:53:34.015Z,124.88
2022-09-27T05:56:05.405Z,129.88
2022-09-27T05:58:56.038Z,126.68
2022-09-27T06:01:27.961Z,130.45
2022-09-27T06:04:33.280Z,130.07
2022-09-27T06:07:32.252Z,132.43
2022-09-27T06:10:01.090Z,137.10
2022-09-27T06:12:28.440Z,139.60
2022-09-27T06:14:55.904Z,138.63
2022-09-27T06:17:36.892Z,138.50
2022-09-27T06:20:11.012Z,137.75
2022-09-27T06:22:38.871Z,138.27
2022-09-27T06:25:06.746Z,137.50
2022-09-27T06:27:40.834Z,146.90
2022-09-27T06:30:19.591Z,146.23
2022-09-27T06:33:02.113Z,147.75
2022-09-27T06:35:53.542Z,145.40
2022-09-27T06:38:21.563Z,149.57
2022-09-27T06:41:13.496Z,147.15
2022-09-27T06:43:59.955Z,149.85
2022-09-27T06:46:42.898Z,149.68
2022-09-27T06:49:13.415Z,149.75
2022-09-27T06:51:43.166Z,142.10
2022-09-27T06:54:10.641Z,141.27
2022-09-27T06:56:38.212Z,144.68
2022-09-27T06:59:23.932Z,142.75
2022-09-27T07:01:54.035Z,145.82
2022-09-27T07:04:21.669Z,139.52
2022-09-27T07:06:58.012Z,143.35
2022-09-27T07:09:29.232Z,146.48
2022-09-27T07:11:56.882Z,141.57
2022-09-27T07:14:26.282Z,142.38
2022-09-27T07:16:54.878Z,143.98
2022-09-27T07:19:22.259Z,143.20
2022-09-27T07:21:52.736Z,140.35
2022-09-27T07:24:20.394Z,137.18
2022-09-27T07:26:48.542Z,136.82
2022-09-27T07:29:18.499Z,136.85
2022-09-27T07:31:46.575Z,133.25
2022-09-27T07:34:14.251Z,132.18
2022-09-27T07:36:41.641Z,137.10
2022-09-27T07:39:10.340Z,137.55
2022-09-27T07:41:40.563Z,138.70
2022-09-27T07:44:08.370Z,141.43
2022-09-27T07:46:42.923Z,141.77
2022-09-27T07:49:23.224Z,142.65
2022-09-27T07:51:51.865Z,142.20
2022-09-27T07:54:30.686Z,126.28
2022-09-27T07:57:28.548Z,124.07
2022-09-27T07:59:58.594Z,128.75
2022-09-27T08:02:26.160Z,130.57
2022-09-27T08:04:54.653Z,127.75
2022-09-27T08:07:25.255Z,127.70
2022-09-27T08:09:56.566Z,128.88
2022-09-27T08:12:24.366Z,132.00
2022-09-27T08:14:58.772Z,130.65
2022-09-27T08:17:26.523Z,127.20
2022-09-27T08:20:16.264Z,129.10
2022-09-27T08:22:52.604Z,126.90
2022-09-27T08:25:31.213Z,131.80
2022-09-27T08:28:25.230Z,131.02
2022-09-27T08:31:01.655Z,144.07
2022-09-27T08:33:32.509Z,145.68
2022-09-27T08:36:02.042Z,149.70
2022-09-27T08:38:29.483Z,147.55
2022-09-27T08:41:06.051Z,149.48
2022-09-27T08:44:00.174Z,152.40
2022-09-27T08:46:51.090Z,155.45
2022-09-27T08:49:26.805Z,151.52
2022-09-27T08:51:56.507Z,153.50
2022-09-27T08:54:30.438Z,149.40
2022-09-27T08:57:07.424Z,148.85
2022-09-27T08:59:42.190Z,158.73
2022-09-27T09:02:20.118Z,147.45
2022-09-27T09:04:54.639Z,183.88
2022-09-27T09:07:25.052Z,143.10
2022-09-27T09:10:42.522Z,137.43
2022-09-27T09:13:34.893Z,130.95
2022-09-27T09:16:22.166Z,182.68
2022-09-27T09:19:21.435Z,173.52
2022-09-27T09:22:50.712Z,152.95
2022-09-27T09:25:24.155Z,133.15
2022-09-27T09:28:21.272Z,141.68
2022-09-27T09:30:54.651Z,149.52
2022-09-27T09:33:35.431Z,136.60
2022-09-27T09:36:03.271Z,141.68
2022-09-27T09:38:54.247Z,133.73
2022-09-27T09:41:50.945Z,128.18
2022-09-27T09:44:28.262Z,118.90
2022-09-27T09:47:03.448Z,118.95
2022-09-27T09:49:36.285Z,113.15
2022-09-27T09:52:14.019Z,122.90
2022-09-27T09:54:53.075Z,116.88
2022-09-27T09:57:36.740Z,118.88
2022-09-27T10:00:19.046Z,116.55
2022-09-27T10:02:56.097Z,117.85
2022-09-27T10:05:26.119Z,121.53
2022-09-27T10:08:02.329Z,122.43
2022-09-27T10:10:30.622Z,124.88
2022-09-27T10:13:22.898Z,125.43
2022-09-27T10:16:06.034Z,126.50
2022-09-27T10:18:37.628Z,127.45
2022-09-27T10:21:28.697Z,122.68
2022-09-27T10:24:06.753Z,119.50
2022-09-27T10:27:00.592Z,120.10
2022-09-27T10:32:27.472Z,130.18
2022-09-27T10:35:29.370Z,130.20
2022-09-27T10:38:22.808Z,131.30
2022-09-27T10:40:59.087Z,123.43
2022-09-27T10:43:31.394Z,131.98
2022-09-27T10:46:31.891Z,133.85
2022-09-27T10:49:43.692Z,135.70
2022-09-27T10:52:36.115Z,127.38
2022-09-27T10:55:23.849Z,108.05
2022-09-27T10:57:55.719Z,125.72
2022-09-27T11:00:31.504Z,130.38
2022-09-27T11:03:06.268Z,245.07
2022-09-27T11:05:38.507Z,232.73
2022-09-27T11:08:27.362Z,114.50
2022-09-27T11:11:14.631Z,170.50
2022-09-27T11:14:05.235Z,165.48
2022-09-27T11:16:38.187Z,156.25
2022-09-27T11:19:15.712Z,329.52
2022-09-27T11:22:13.830Z,133.73
2022-09-27T11:24:59.595Z,268.45
2022-09-27T11:27:48.720Z,238.35
2022-09-27T11:30:22.826Z,299.17
2022-09-27T11:33:31.415Z,204.02
2022-09-27T11:36:27.316Z,189.55
2022-09-27T11:39:21.356Z,182.32
2022-09-27T11:42:28.774Z,181.32
2022-09-27T11:45:45.226Z,173.82
2022-09-27T11:48:35.930Z,121.47
2022-09-27T11:51:16.369Z,174.93
2022-09-27T11:54:13.979Z,168.15
2022-09-27T11:57:00.321Z,164.13
2022-09-27T11:59:39.701Z,172.98
2022-09-27T12:02:33.623Z,164.60
2022-09-27T12:05:29.197Z,164.25
2022-09-27T12:08:27.847Z,176.73
2022-09-27T12:11:24.427Z,99.47
2022-09-27T12:14:02.509Z,161.50
2022-09-27T12:16:32.612Z,184.13
2022-09-27T12:19:02.362Z,176.25
2022-09-27T12:21:51.100Z,182.07
2022-09-27T12:24:23.586Z,181.90
2022-09-27T12:27:49.761Z,177.07
2022-09-27T12:30:20.527Z,180.70
2022-09-27T12:33:03.035Z,112.00
2022-09-27T12:35:46.770Z,182.20
2022-09-27T12:38:39.109Z,175.88
2022-09-27T12:41:11.457Z,182.05
2022-09-27T12:43:51.248Z,185.07
2022-09-27T12:47:04.803Z,179.40
2022-09-27T12:50:01.643Z,190.50
2022-09-27T12:52:36.246Z,181.27
2022-09-27T12:55:24.625Z,160.60
2022-09-27T12:57:57.671Z,147.00
2022-09-27T13:00:38.404Z,155.90
2022-09-27T13:03:36.795Z,177.68
2022-09-27T13:06:28.356Z,151.70
2022-09-27T13:09:11.765Z,187.65
2022-09-27T13:14:26.261Z,167.35
2022-09-27T13:16:53.994Z,159.18
2022-09-27T13:19:45.651Z,168.50
2022-09-27T13:22:27.836Z,173.27
2022-09-27T13:25:54.271Z,172.80
2022-09-27T13:28:51.982Z,168.73
2022-09-27T13:32:00.133Z,175.88
2022-09-27T13:35:10.097Z,162.80
2022-09-27T13:37:59.474Z,173.88
2022-09-27T13:40:43.721Z,177.10
2022-09-27T13:43:54.262Z,177.88
2022-09-27T13:46:34.797Z,182.27
2022-09-27T13:49:21.619Z,184.63
2022-09-27T13:52:24.587Z,170.00
2022-09-27T13:55:42.449Z,177.27
2022-09-27T13:58:39.471Z,182.18
2022-09-27T14:01:20.559Z,176.02
2022-09-27T14:03:51.305Z,183.60
2022-09-27T14:06:50.651Z,174.02
2022-09-27T14:09:26.394Z,177.88
2022-09-27T14:12:12.435Z,176.10
2022-09-27T14:14:43.203Z,173.80
2022-09-27T14:17:11.779Z,179.45
2022-09-27T14:19:41.654Z,184.77
2022-09-27T14:22:26.434Z,174.82
2022-09-27T14:24:59.274Z,174.23
2022-09-27T14:27:40.465Z,186.10
2022-09-27T14:30:30.155Z,177.40
2022-09-27T14:33:33.861Z,172.57
2022-09-27T14:36:44.451Z,169.90
2022-09-27T14:39:24.773Z,165.45
2022-09-27T14:41:54.838Z,162.30
2022-09-27T14:44:27.322Z,165.95
2022-09-27T14:47:16.799Z,164.25
2022-09-27T14:49:52.815Z,162.50
2022-09-27T14:52:27.928Z,163.82
2022-09-27T14:55:06.060Z,163.23
2022-09-27T14:57:34.745Z,165.77
2022-09-27T15:00:23.742Z,165.93
2022-09-27T15:02:55.303Z,165.20
2022-09-27T15:05:28.739Z,162.98
2022-09-27T15:08:01.556Z,166.20
2022-09-27T15:10:32.646Z,162.77
2022-09-27T15:13:03.244Z,162.20
2022-09-27T15:15:39.269Z,161.00
2022-09-27T15:18:46.896Z,161.15
2022-09-27T15:21:34.294Z,158.15
2022-09-27T15:24:03.006Z,155.85
2022-09-27T15:26:46.127Z,160.63
2022-09-27T15:29:39.478Z,156.52
2022-09-27T15:32:12.314Z,149.93
2022-09-27T15:34:40.162Z,148.48
2022-09-27T15:37:07.595Z,147.40
2022-09-27T15:39:37.883Z,135.13
2022-09-27T15:42:17.810Z,141.95
2022-09-27T15:44:48.102Z,148.40
2022-09-27T15:47:43.108Z,145.15
2022-09-27T15:50:16.506Z,148.27
2022-09-27T15:55:28.250Z,140.30
2022-09-27T15:57:59.999Z,144.10
2022-09-27T16:00:28.428Z,139.90
2022-09-27T16:02:56.313Z,138.50
2022-09-27T16:05:24.135Z,134.73
2022-09-27T16:07:51.830Z,138.40
2022-09-27T16:10:26.346Z,138.80
2022-09-27T16:12:53.809Z,131.57
2022-09-27T16:15:21.524Z,132.10
2022-09-27T16:17:48.946Z,137.07
2022-09-27T16:20:25.131Z,139.48
2022-09-27T16:22:56.495Z,137.10
2022-09-27T16:25:24.604Z,134.20
2022-09-27T16:27:55.113Z,132.82
2022-09-27T16:30:22.642Z,131.85
2022-09-27T16:32:50.576Z,132.55
2022-09-27T16:35:19.456Z,135.70
2022-09-27T16:37:47.377Z,136.43
2022-09-27T16:40:18.161Z,134.45
2022-09-27T16:42:49.413Z,138.13
2022-09-27T16:45:19.590Z,136.38
2022-09-27T16:47:47.454Z,142.07
2022-09-27T16:50:34.407Z,142.48
2022-09-27T16:53:01.855Z,138.93
2022-09-27T16:55:29.563Z,137.95
2022-09-27T16:57:59.942Z,139.57
2022-09-27T17:00:27.874Z,131.07
2022-09-27T17:02:55.432Z,131.95
2022-09-27T17:05:23.330Z,132.50
2022-09-27T17:07:52.680Z,127.78
2022-09-27T17:10:21.537Z,128.88
2022-09-27T17:12:49.149Z,131.55
2022-09-27T17:15:18.031Z,135.85
2022-09-27T17:17:49.732Z,132.75
2022-09-27T17:20:20.454Z,136.70
2022-09-27T17:22:48.484Z,137.35
2022-09-27T17:25:15.848Z,135.30
2022-09-27T17:27:43.238Z,131.32
2022-09-27T17:30:10.868Z,132.25
2022-09-27T17:32:39.418Z,131.75
2022-09-27T17:35:08.221Z,129.93
2022-09-27T17:37:35.759Z,132.02
2022-09-27T17:40:04.366Z,135.95
2022-09-27T17:42:32.356Z,133.43
2022-09-27T17:44:59.673Z,130.50
2022-09-27T17:47:46.568Z,132.52
2022-09-27T17:50:25.698Z,128.57
2022-09-27T17:52:54.135Z,130.60
2022-09-27T17:55:22.012Z,131.68
2022-09-27T17:57:50.406Z,130.52
2022-09-27T18:00:19.055Z,128.75
2022-09-27T18:02:46.717Z,131.77
2022-09-27T18:05:14.231Z,130.27
2022-09-27T18:07:41.546Z,131.05
2022-09-27T18:10:08.799Z,127.60
2022-09-27T18:12:36.252Z,135.55
2022-09-27T18:15:04.286Z,129.65
2022-09-27T18:17:31.823Z,134.73
2022-09-27T18:20:00.611Z,134.73
2022-09-27T18:22:30.433Z,136.02
2022-09-27T18:24:57.810Z,132.00
2022-09-27T18:27:25.153Z,132.82
2022-09-27T18:29:52.969Z,131.93
2022-09-27T18:32:20.330Z,133.20
2022-09-27T18:34:48.127Z,128.90
2022-09-27T18:37:15.504Z,130.35
2022-09-27T18:39:42.979Z,126.63
2022-09-27T18:42:10.304Z,128.68
2022-09-27T18:44:37.765Z,129.52
2022-09-27T18:47:05.126Z,130.15
2022-09-27T18:49:34.162Z,125.72
2022-09-27T18:52:02.884Z,128.10
2022-09-27T18:54:30.351Z,128.38
2022-09-27T18:56:57.733Z,128.90
2022-09-27T18:59:25.154Z,130.55
2022-09-27T19:01:52.933Z,128.43
2022-09-27T19:04:24.300Z,128.73
2022-09-27T19:06:53.631Z,128.23
2022-09-27T19:09:21.122Z,128.80
2022-09-27T19:11:48.923Z,129.00
2022-09-27T19:14:19.229Z,127.70
2022-09-27T19:16:48.292Z,129.90
2022-09-27T19:19:17.012Z,129.75
2022-09-27T19:21:44.946Z,133.63
2022-09-27T19:24:14.056Z,129.07
2022-09-27T19:26:42.534Z,130.10
2022-09-27T19:29:10.670Z,132.40
2022-09-27T19:31:38.260Z,135.20
2022-09-27T19:34:05.695Z,127.50
2022-09-27T19:36:33.268Z,125.22
2022-09-27T19:39:02.386Z,125.72
2022-09-27T19:41:30.008Z,124.47
2022-09-27T19:43:57.739Z,108.03
2022-09-27T19:46:26.006Z,106.28
2022-09-27T19:48:54.114Z,102.88
2022-09-27T19:51:24.342Z,128.32
2022-09-27T19:53:53.208Z,121.40
2022-09-27T19:56:21.778Z,120.80
2022-09-27T19:58:49.703Z,129.48
2022-09-27T20:01:20.382Z,120.35
2022-09-27T20:03:50.136Z,121.95
2022-09-27T20:06:19.442Z,118.03
2022-09-27T20:08:50.908Z,120.47
2022-09-27T20:11:23.239Z,128.10
2022-09-27T20:13:53.221Z,125.20
2022-09-27T20:16:23.704Z,124.22
2022-09-27T20:18:53.453Z,122.57
2022-09-27T20:21:22.502Z,126.25
2022-09-27T20:23:57.329Z,124.32
2022-09-27T20:26:26.703Z,126.70
2022-09-27T20:28:57.201Z,122.63
2022-09-27T20:31:28.012Z,123.07
2022-09-27T20:33:55.505Z,119.07
2022-09-27T20:36:25.338Z,121.80
2022-09-27T20:38:59.559Z,122.75
2022-09-27T20:41:32.772Z,127.72
2022-09-27T20:44:04.894Z,125.53
2022-09-27T20:46:33.632Z,129.98
2022-09-27T20:49:03.865Z,127.32
2022-09-27T20:51:32.595Z,125.85
2022-09-27T20:54:00.476Z,133.43
2022-09-27T20:56:38.154Z,122.57
2022-09-27T20:59:14.642Z,116.75
2022-09-27T21:01:44.161Z,122.60
2022-09-27T21:04:14.641Z,132.48
2022-09-27T21:06:43.355Z,123.05
2022-09-27T21:09:17.279Z,122.53
2022-09-27T21:11:46.189Z,129.85
2022-09-27T21:14:13.632Z,132.60
2022-09-27T21:16:41.211Z,133.85
2022-09-27T21:19:10.109Z,134.85
2022-09-27T21:21:37.627Z,133.40
2022-09-27T21:24:05.167Z,134.45
2022-09-27T21:26:33.923Z,136.13
2022-09-27T21:29:05.965Z,140.82
2022-09-27T21:31:33.867Z,130.38
2022-09-27T21:34:03.667Z,130.57
2022-09-27T21:36:33.317Z,130.88
2022-09-27T21:39:01.150Z,131.93
2022-09-27T21:41:29.284Z,131.27
2022-09-27T21:43:57.634Z,130.95
2022-09-27T21:46:27.622Z,130.60
2022-09-27T21:49:05.254Z,131.52
2022-09-27T21:51:44.682Z,128.70
2022-09-27T21:54:15.627Z,132.50
2022-09-27T21:56:44.177Z,129.75
2022-09-27T21:59:15.250Z,136.73
2022-09-27T22:01:44.963Z,141.40
2022-09-27T22:04:13.192Z,137.25
2022-09-27T22:06:41.035Z,131.15
2022-09-27T22:09:17.998Z,131.73
2022-09-27T22:11:47.737Z,129.15
2022-09-27T22:14:17.472Z,131.80
2022-09-27T22:16:44.983Z,129.15
2022-09-27T22:19:14.400Z,133.68
2022-09-27T22:21:42.010Z,130.80
2022-09-27T22:24:14.584Z,131.85
2022-09-27T22:26:47.037Z,135.13
2022-09-27T22:29:14.565Z,136.50
2022-09-27T22:31:42.047Z,137.60
2022-09-27T22:34:18.706Z,135.38
2022-09-27T22:36:46.986Z,133.57
2022-09-27T22:39:14.359Z,135.82
2022-09-27T22:41:41.782Z,137.55
2022-09-27T22:44:09.184Z,138.38
2022-09-27T22:46:36.917Z,135.18
2022-09-27T22:49:04.426Z,136.98
2022-09-27T22:51:35.221Z,133.82
2022-09-27T22:54:02.692Z,127.03
2022-09-27T22:56:30.002Z,127.72
2022-09-27T22:58:57.643Z,130.35
2022-09-27T23:01:25.649Z,129.32
2022-09-27T23:03:56.016Z,132.02
2022-09-27T23:06:23.945Z,122.30
2022-09-27T23:08:51.820Z,108.72
2022-09-27T23:11:22.023Z,131.13
2022-09-27T23:13:51.159Z,133.43
2022-09-27T23:16:24.575Z,131.15
2022-09-27T23:18:56.932Z,138.13
2022-09-27T23:21:26.367Z,116.83
2022-09-27T23:23:59.756Z,121.28
2022-09-27T23:26:28.345Z,123.00
2022-09-27T23:28:57.675Z,120.72
2022-09-27T23:31:27.968Z,116.97
2022-09-27T23:33:55.907Z,119.93
2022-09-27T23:36:26.776Z,128.25
2022-09-27T23:39:00.830Z,130.57
2022-09-27T23:41:28.273Z,130.52
2022-09-27T23:43:56.464Z,129.90
2022-09-27T23:46:25.296Z,131.35
2022-09-27T23:48:53.708Z,130.73
2022-09-27T23:51:21.174Z,131.60
2022-09-27T23:53:48.685Z,134.73
2022-09-27T23:56:17.618Z,135.60
2022-09-27T23:58:46.140Z,136.00
